createdAt,value
2023-05-12T00:02:04.602Z,5
2023-05-12T00:04:35.230Z,8
2023-05-12T00:07:05.895Z,12
2023-05-12T00:09:36.484Z,8
2023-05-12T00:12:07.845Z,8
2023-05-12T00:14:38.608Z,12
2023-05-12T00:17:12.166Z,12
2023-05-12T00:19:43.226Z,12
2023-05-12T00:22:14.038Z,8
2023-05-12T00:24:44.786Z,12
2023-05-12T00:27:15.226Z,12
2023-05-12T00:29:45.798Z,8
2023-05-12T00:32:23.088Z,8
2023-05-12T00:34:53.758Z,8
2023-05-12T00:37:24.465Z,8
2023-05-12T00:39:54.990Z,8
2023-05-12T00:42:26.457Z,12
2023-05-12T00:44:57.716Z,8
2023-05-12T00:47:28.470Z,10
2023-05-12T00:49:58.979Z,8
2023-05-12T00:52:29.793Z,8
2023-05-12T00:55:00.984Z,8
2023-05-12T00:57:34.498Z,8
2023-05-12T01:00:11.712Z,8
2023-05-12T01:02:47.837Z,6
2023-05-12T01:05:25.920Z,12
2023-05-12T01:07:58.023Z,8
2023-05-12T01:10:29.083Z,8
2023-05-12T01:13:02.212Z,8
2023-05-12T01:15:33.607Z,8
2023-05-12T01:18:08.441Z,8
2023-05-12T01:20:40.867Z,8
2023-05-12T01:23:11.244Z,12
2023-05-12T01:25:47.867Z,12
2023-05-12T01:28:19.229Z,8
2023-05-12T01:30:50.090Z,8
2023-05-12T01:33:21.237Z,8
2023-05-12T01:35:52.119Z,8
2023-05-12T01:38:22.855Z,8
2023-05-12T01:40:53.477Z,8
2023-05-12T01:43:23.697Z,12
2023-05-12T01:45:54.810Z,8
2023-05-12T01:48:25.996Z,8
2023-05-12T01:50:56.729Z,8
2023-05-12T01:53:27.497Z,8
2023-05-12T01:55:58.255Z,12
2023-05-12T01:58:28.767Z,8
2023-05-12T02:01:00.586Z,12
2023-05-12T02:03:31.708Z,8
2023-05-12T02:06:02.928Z,12
2023-05-12T02:08:34.256Z,8
2023-05-12T02:11:05.358Z,8
2023-05-12T02:13:36.313Z,8
2023-05-12T02:16:07.493Z,12
2023-05-12T02:18:39.679Z,8
2023-05-12T02:21:10.449Z,8
2023-05-12T02:23:41.340Z,9
2023-05-12T02:26:12.448Z,8
2023-05-12T02:28:43.281Z,8
2023-05-12T02:31:13.874Z,9
2023-05-12T02:33:44.840Z,9
2023-05-12T02:36:16.082Z,12
2023-05-12T02:38:46.929Z,12
2023-05-12T02:41:16.925Z,12
2023-05-12T02:43:48.515Z,12
2023-05-12T02:46:19.749Z,10
2023-05-12T02:48:50.389Z,12
2023-05-12T02:51:21.694Z,8
2023-05-12T02:53:52.424Z,9
2023-05-12T02:56:22.842Z,12
2023-05-12T02:58:53.717Z,9
2023-05-12T03:01:24.505Z,12
2023-05-12T03:03:55.350Z,8
2023-05-12T03:06:24.501Z,12
2023-05-12T03:08:55.381Z,12
2023-05-12T03:11:26.073Z,11
2023-05-12T03:13:57.194Z,12
2023-05-12T03:16:28.138Z,9
2023-05-12T03:18:58.873Z,8
2023-05-12T03:21:30.786Z,8
2023-05-12T03:24:02.145Z,9
2023-05-12T03:26:33.269Z,8
2023-05-12T03:29:04.307Z,12
2023-05-12T03:31:35.319Z,9
2023-05-12T03:34:06.414Z,8
2023-05-12T03:36:38.123Z,12
2023-05-12T03:39:08.937Z,8
2023-05-12T03:41:40.106Z,12
2023-05-12T03:44:10.560Z,8
2023-05-12T03:46:41.898Z,12
2023-05-12T03:49:12.365Z,9
2023-05-12T03:51:43.453Z,11
2023-05-12T03:54:14.393Z,9
2023-05-12T03:56:46.471Z,8
2023-05-12T03:59:17.566Z,13
2023-05-12T04:01:48.681Z,11
2023-05-12T04:04:19.580Z,8
2023-05-12T04:06:50.899Z,12
2023-05-12T04:09:21.694Z,12
2023-05-12T04:14:32.075Z,20
2023-05-12T04:16:56.070Z,12
2023-05-12T04:19:27.427Z,9
2023-05-12T04:21:58.292Z,8
2023-05-12T04:24:29.519Z,12
2023-05-12T04:27:00.475Z,12
2023-05-12T04:29:31.225Z,12
2023-05-12T04:32:02.253Z,12
2023-05-12T04:34:33.184Z,12
2023-05-12T04:37:04.069Z,16
2023-05-12T04:39:35.452Z,12
2023-05-12T04:42:07.033Z,12
2023-05-12T04:44:37.963Z,12
2023-05-12T04:47:12.136Z,12
2023-05-12T04:49:43.187Z,12
2023-05-12T04:52:14.042Z,12
2023-05-12T04:54:45.348Z,12
2023-05-12T04:57:15.657Z,9
2023-05-12T04:59:47.066Z,11
2023-05-12T05:02:17.720Z,11
2023-05-12T05:04:48.326Z,13
2023-05-12T05:07:19.257Z,13
2023-05-12T05:09:50.911Z,12
2023-05-12T05:12:21.743Z,16
2023-05-12T05:14:52.684Z,15
2023-05-12T05:17:23.652Z,12
2023-05-12T05:19:58.045Z,12
2023-05-12T05:22:25.715Z,24
2023-05-12T05:24:56.379Z,10
2023-05-12T05:27:27.547Z,8
2023-05-12T05:29:58.984Z,16
2023-05-12T05:32:31.020Z,12
2023-05-12T05:35:01.228Z,12
2023-05-12T05:37:32.121Z,13
2023-05-12T05:40:02.950Z,16
2023-05-12T05:42:33.660Z,12
2023-05-12T05:45:04.100Z,9
2023-05-12T05:47:34.735Z,12
2023-05-12T05:50:05.432Z,15
2023-05-12T05:52:36.131Z,16
2023-05-12T05:55:07.462Z,16
2023-05-12T05:57:38.353Z,12
2023-05-12T06:00:09.524Z,18
2023-05-12T06:02:40.505Z,12
2023-05-12T06:05:10.399Z,20
2023-05-12T06:07:41.668Z,16
2023-05-12T06:10:18.767Z,12
2023-05-12T06:12:57.632Z,15
2023-05-12T06:15:28.040Z,17
2023-05-12T06:17:58.788Z,16
2023-05-12T06:20:36.380Z,16
2023-05-12T06:23:06.637Z,12
2023-05-12T06:25:38.229Z,14
2023-05-12T06:28:08.257Z,12
2023-05-12T06:30:38.772Z,12
2023-05-12T06:33:09.117Z,16
2023-05-12T06:35:39.815Z,17
2023-05-12T06:38:10.253Z,12
2023-05-12T06:40:41.123Z,20
2023-05-12T06:43:11.623Z,16
2023-05-12T06:45:41.800Z,15
2023-05-12T06:48:12.368Z,20
2023-05-12T06:50:43.050Z,20
2023-05-12T06:53:13.224Z,22
2023-05-12T06:55:44.066Z,16
2023-05-12T06:58:14.614Z,13
2023-05-12T07:00:45.283Z,12
2023-05-12T07:03:16.020Z,12
2023-05-12T07:05:46.398Z,16
2023-05-12T07:08:16.662Z,20
2023-05-12T07:10:47.456Z,19
2023-05-12T07:13:18.179Z,17
2023-05-12T07:15:48.662Z,20
2023-05-12T07:18:19.802Z,13
2023-05-12T07:20:50.999Z,16
2023-05-12T07:23:22.735Z,16
2023-05-12T07:25:51.765Z,17
2023-05-12T07:28:22.036Z,12
2023-05-12T07:30:52.800Z,16
2023-05-12T07:33:23.124Z,17
2023-05-12T07:35:54.462Z,12
2023-05-12T07:38:24.814Z,16
2023-05-12T07:40:55.544Z,16
2023-05-12T07:43:26.642Z,18
2023-05-12T07:45:57.522Z,17
2023-05-12T07:48:28.154Z,16
2023-05-12T07:50:58.536Z,16
2023-05-12T07:53:28.860Z,16
2023-05-12T07:55:59.123Z,16
2023-05-12T07:58:29.746Z,16
2023-05-12T08:01:00.367Z,20
2023-05-12T08:03:30.354Z,16
2023-05-12T08:06:00.908Z,16
2023-05-12T08:08:31.637Z,17
2023-05-12T08:11:02.154Z,13
2023-05-12T08:13:32.655Z,22
2023-05-12T08:16:03.281Z,16
2023-05-12T08:18:38.033Z,20
2023-05-12T08:21:08.550Z,18
2023-05-12T08:23:39.208Z,12
2023-05-12T08:26:09.710Z,20
2023-05-12T08:28:40.040Z,19
2023-05-12T08:31:14.478Z,16
2023-05-12T08:33:44.803Z,20
2023-05-12T08:36:15.536Z,16
2023-05-12T08:38:55.218Z,13
2023-05-12T08:41:26.329Z,14
2023-05-12T08:44:02.125Z,16
2023-05-12T08:46:31.392Z,18
2023-05-12T08:49:05.331Z,14
2023-05-12T08:51:38.302Z,17
2023-05-12T08:54:12.479Z,14
2023-05-12T08:59:13.278Z,15
2023-05-12T09:01:43.622Z,12
2023-05-12T09:04:14.171Z,16
2023-05-12T09:06:44.499Z,13
2023-05-12T09:09:14.670Z,16
2023-05-12T09:11:44.919Z,13
2023-05-12T09:14:15.455Z,12
2023-05-12T09:16:46.033Z,12
2023-05-12T09:19:16.678Z,17
2023-05-12T09:21:50.910Z,12
2023-05-12T09:24:21.383Z,8
2023-05-12T09:26:51.837Z,12
2023-05-12T09:29:31.548Z,11
2023-05-12T09:32:01.815Z,8
2023-05-12T09:34:32.280Z,12
2023-05-12T09:37:02.349Z,9
2023-05-12T09:39:32.665Z,13
2023-05-12T09:42:03.241Z,12
2023-05-12T09:44:33.542Z,16
2023-05-12T09:47:03.979Z,12
2023-05-12T09:49:34.060Z,14
2023-05-12T09:52:04.216Z,8
2023-05-12T09:54:34.741Z,12
2023-05-12T09:57:05.444Z,8
2023-05-12T09:59:35.323Z,15
2023-05-12T10:02:08.981Z,22
2023-05-12T10:04:39.034Z,12
2023-05-12T10:07:09.794Z,12
2023-05-12T10:09:43.039Z,8
2023-05-12T10:12:13.055Z,12
2023-05-12T10:14:44.353Z,12
2023-05-12T10:17:20.381Z,10
2023-05-12T10:20:00.531Z,12
2023-05-12T10:25:12.061Z,24
2023-05-12T10:27:58.887Z,13
2023-05-12T10:30:31.631Z,12
2023-05-12T10:33:10.449Z,16
2023-05-12T10:38:28.671Z,8
2023-05-12T10:40:58.861Z,16
2023-05-12T10:43:30.295Z,25
2023-05-12T10:46:01.480Z,12
2023-05-12T10:48:31.307Z,16
2023-05-12T10:51:08.884Z,20
2023-05-12T10:53:49.979Z,4
2023-05-12T10:56:13.009Z,12
2023-05-12T10:58:43.214Z,17
2023-05-12T11:01:13.456Z,9
2023-05-12T11:03:43.808Z,21
2023-05-12T11:06:13.944Z,20
2023-05-12T11:08:44.286Z,8
2023-05-12T11:11:15.933Z,8
2023-05-12T11:13:45.448Z,8
2023-05-12T11:16:15.378Z,8
2023-05-12T11:18:46.812Z,8
2023-05-12T11:21:18.314Z,8
2023-05-12T11:23:48.402Z,9
2023-05-12T11:26:18.842Z,8
2023-05-12T11:28:49.905Z,8
2023-05-12T11:31:20.050Z,8
2023-05-12T11:34:08.506Z,8
2023-05-12T11:36:37.855Z,8
2023-05-12T11:39:12.391Z,8
2023-05-12T11:41:42.260Z,8
2023-05-12T11:44:12.391Z,13
2023-05-12T11:46:42.633Z,12
2023-05-12T11:49:17.998Z,13
2023-05-12T11:51:48.103Z,13
2023-05-12T11:54:19.006Z,10
2023-05-12T11:56:49.104Z,12
2023-05-12T11:59:19.539Z,8
2023-05-12T12:01:49.712Z,8
2023-05-12T12:04:24.925Z,12
2023-05-12T12:06:56.391Z,11
2023-05-12T12:09:30.723Z,12
2023-05-12T12:12:04.195Z,12
2023-05-12T12:17:14.319Z,8
2023-05-12T12:19:44.778Z,8
2023-05-12T12:22:14.991Z,10
2023-05-12T12:24:45.917Z,12
2023-05-12T12:27:19.194Z,12
2023-05-12T12:29:48.971Z,12
2023-05-12T12:32:19.547Z,12
2023-05-12T12:34:50.099Z,12
2023-05-12T12:37:20.259Z,12
2023-05-12T12:39:50.863Z,12
2023-05-12T12:42:23.329Z,12
2023-05-12T12:44:53.433Z,9
2023-05-12T12:47:23.262Z,12
2023-05-12T12:49:53.569Z,12
2023-05-12T12:52:23.677Z,14
2023-05-12T12:54:54.142Z,10
2023-05-12T12:57:29.587Z,12
2023-05-12T13:00:00.115Z,12
2023-05-12T13:02:30.226Z,12
2023-05-12T13:05:00.906Z,12
2023-05-12T13:07:34.719Z,12
2023-05-12T13:10:05.488Z,12
2023-05-12T13:12:36.425Z,15
2023-05-12T13:15:06.139Z,12
2023-05-12T13:17:37.945Z,12
2023-05-12T13:20:08.296Z,15
2023-05-12T13:22:38.807Z,12
2023-05-12T13:25:09.560Z,16
2023-05-12T13:27:40.392Z,12
2023-05-12T13:30:17.144Z,24
2023-05-12T13:32:47.691Z,12
2023-05-12T13:35:22.387Z,15
2023-05-12T13:37:53.238Z,28
2023-05-12T13:40:23.630Z,16
2023-05-12T13:42:54.324Z,16
2023-05-12T13:45:24.874Z,29
2023-05-12T13:47:54.942Z,17
2023-05-12T13:50:27.450Z,20
2023-05-12T13:52:57.978Z,19
2023-05-12T13:55:28.510Z,16
2023-05-12T13:57:59.032Z,16
2023-05-12T14:00:29.656Z,19
2023-05-12T14:03:00.548Z,24
2023-05-12T14:05:32.272Z,16
2023-05-12T14:08:02.675Z,16
2023-05-12T14:10:33.283Z,20
2023-05-12T14:13:03.876Z,19
2023-05-12T14:15:44.650Z,20
2023-05-12T14:18:09.765Z,21
2023-05-12T14:20:40.036Z,21
2023-05-12T14:23:11.230Z,17
2023-05-12T14:25:41.808Z,16
2023-05-12T14:28:12.228Z,28
2023-05-12T14:30:49.543Z,20
2023-05-12T14:33:20.092Z,20
2023-05-12T14:35:59.646Z,24
2023-05-12T14:38:21.707Z,24
2023-05-12T14:40:52.068Z,28
2023-05-12T14:43:22.668Z,23
2023-05-12T14:45:54.139Z,28
2023-05-12T14:48:24.201Z,17
2023-05-12T14:50:54.544Z,22
2023-05-12T14:53:24.472Z,18
2023-05-12T14:55:54.473Z,24
2023-05-12T14:58:24.536Z,24
2023-05-12T15:00:55.818Z,18
2023-05-12T15:03:26.439Z,24
2023-05-12T15:06:05.346Z,20
2023-05-12T15:08:26.843Z,20
2023-05-12T15:11:08.638Z,25
2023-05-12T15:13:38.087Z,23
2023-05-12T15:16:08.519Z,24
2023-05-12T15:18:38.854Z,20
2023-05-12T15:21:10.254Z,22
2023-05-12T15:23:40.895Z,48
2023-05-12T15:28:52.386Z,36
2023-05-12T15:31:26.875Z,35
2023-05-12T15:33:57.259Z,28
2023-05-12T15:36:27.411Z,32
2023-05-12T15:38:58.652Z,28
2023-05-12T15:41:28.648Z,24
2023-05-12T15:43:58.776Z,28
2023-05-12T15:46:29.347Z,24
2023-05-12T15:49:01.705Z,24
2023-05-12T15:51:32.412Z,24
2023-05-12T15:54:03.241Z,28
2023-05-12T15:56:33.674Z,28
2023-05-12T15:59:05.411Z,24
2023-05-12T16:01:35.738Z,20
2023-05-12T16:04:06.735Z,20
2023-05-12T16:06:37.175Z,29
2023-05-12T16:09:08.664Z,27
2023-05-12T16:11:38.832Z,24
2023-05-12T16:14:09.280Z,23
2023-05-12T16:16:39.764Z,21
2023-05-12T16:19:10.446Z,24
2023-05-12T16:21:40.865Z,28
2023-05-12T16:24:11.366Z,24
2023-05-12T16:26:41.804Z,25
2023-05-12T16:29:12.123Z,23
2023-05-12T16:31:46.767Z,24
2023-05-12T16:34:17.691Z,24
2023-05-12T16:36:53.101Z,30
2023-05-12T16:39:24.383Z,24
2023-05-12T16:42:00.668Z,24
2023-05-12T16:44:33.788Z,24
2023-05-12T16:47:06.632Z,24
2023-05-12T16:49:39.065Z,24
2023-05-12T16:52:12.557Z,20
2023-05-12T16:54:45.273Z,25
2023-05-12T16:57:17.334Z,24
2023-05-12T16:59:49.416Z,28
2023-05-12T17:02:23.585Z,26
2023-05-12T17:04:56.295Z,28
2023-05-12T17:07:29.717Z,21
2023-05-12T17:10:02.377Z,20
2023-05-12T17:12:34.336Z,30
2023-05-12T17:15:08.311Z,32
2023-05-12T17:17:38.812Z,29
2023-05-12T17:20:10.528Z,27
2023-05-12T17:22:42.629Z,22
2023-05-12T17:25:14.557Z,23
2023-05-12T17:27:46.870Z,20
2023-05-12T17:30:19.096Z,21
2023-05-12T17:32:49.658Z,28
2023-05-12T17:35:21.675Z,24
2023-05-12T17:37:56.296Z,24
2023-05-12T17:40:28.543Z,24
2023-05-12T17:43:00.676Z,32
2023-05-12T17:45:31.590Z,28
2023-05-12T17:48:03.570Z,30
2023-05-12T17:50:37.051Z,20
2023-05-12T17:53:09.373Z,24
2023-05-12T17:55:44.579Z,28
2023-05-12T17:58:15.395Z,28
2023-05-12T18:00:45.819Z,29
2023-05-12T18:03:23.891Z,20
2023-05-12T18:05:53.818Z,20
2023-05-12T18:08:26.128Z,29
2023-05-12T18:10:58.292Z,27
2023-05-12T18:13:29.006Z,33
2023-05-12T18:15:59.322Z,30
2023-05-12T18:18:29.745Z,25
2023-05-12T18:21:01.128Z,31
2023-05-12T18:23:34.877Z,25
2023-05-12T18:26:15.586Z,27
2023-05-12T18:28:51.448Z,28
2023-05-12T18:31:22.056Z,27
2023-05-12T18:33:55.147Z,28
2023-05-12T18:36:27.783Z,32
2023-05-12T18:38:58.205Z,33
2023-05-12T18:41:29.801Z,25
2023-05-12T18:44:00.169Z,27
2023-05-12T18:46:32.780Z,27
2023-05-12T18:49:03.234Z,28
2023-05-12T18:51:37.450Z,33
2023-05-12T18:54:18.938Z,32
2023-05-12T18:56:58.647Z,30
2023-05-12T18:59:28.735Z,30
2023-05-12T19:02:00.289Z,31
2023-05-12T19:04:32.590Z,40
2023-05-12T19:07:03.309Z,40
2023-05-12T19:09:40.950Z,32
2023-05-12T19:12:12.139Z,36
2023-05-12T19:14:42.926Z,25
2023-05-12T19:17:12.945Z,31
2023-05-12T19:19:43.456Z,32
2023-05-12T19:22:14.743Z,34
2023-05-12T19:24:46.879Z,32
2023-05-12T19:27:17.493Z,33
2023-05-12T19:29:50.020Z,30
2023-05-12T19:32:18.913Z,36
2023-05-12T19:34:49.637Z,33
2023-05-12T19:37:21.567Z,36
2023-05-12T19:39:58.078Z,36
2023-05-12T19:42:29.403Z,36
2023-05-12T19:45:00.254Z,32
2023-05-12T19:47:31.667Z,32
2023-05-12T19:50:05.678Z,36
2023-05-12T19:52:43.708Z,34
2023-05-12T19:55:14.965Z,28
2023-05-12T19:57:47.012Z,28
2023-05-12T20:00:23.203Z,32
2023-05-12T20:02:54.756Z,30
2023-05-12T20:05:25.661Z,32
2023-05-12T20:07:56.190Z,34
2023-05-12T20:10:28.465Z,30
2023-05-12T20:13:00.492Z,31
2023-05-12T20:15:34.960Z,30
2023-05-12T20:18:05.167Z,31
2023-05-12T20:20:37.405Z,31
2023-05-12T20:23:10.689Z,28
2023-05-12T20:25:43.360Z,29
2023-05-12T20:28:19.905Z,28
2023-05-12T20:30:50.027Z,28
2023-05-12T20:33:20.723Z,32
2023-05-12T20:35:50.159Z,30
2023-05-12T20:38:20.683Z,36
2023-05-12T20:40:57.008Z,37
2023-05-12T20:43:28.169Z,36
2023-05-12T20:45:58.599Z,28
2023-05-12T20:48:29.198Z,32
2023-05-12T20:50:59.965Z,27
2023-05-12T20:53:32.106Z,29
2023-05-12T20:56:03.305Z,30
2023-05-12T20:58:35.203Z,28
2023-05-12T21:01:06.496Z,27
2023-05-12T21:03:37.259Z,32
2023-05-12T21:06:07.357Z,32
2023-05-12T21:08:39.808Z,28
2023-05-12T21:11:10.253Z,33
2023-05-12T21:13:41.518Z,33
2023-05-12T21:16:11.855Z,32
2023-05-12T21:18:51.600Z,32
2023-05-12T21:21:23.633Z,32
2023-05-12T21:23:53.936Z,31
2023-05-12T21:26:27.169Z,32
2023-05-12T21:29:00.313Z,32
2023-05-12T21:31:30.896Z,35
2023-05-12T21:34:01.017Z,28
2023-05-12T21:36:32.191Z,31
2023-05-12T21:39:03.060Z,36
2023-05-12T21:41:33.744Z,35
2023-05-12T21:44:07.342Z,32
2023-05-12T21:46:40.465Z,36
2023-05-12T21:49:13.675Z,34
2023-05-12T21:51:46.918Z,32
2023-05-12T21:54:17.716Z,36
2023-05-12T21:56:48.775Z,32
2023-05-12T21:59:22.524Z,36
2023-05-12T22:01:53.160Z,33
2023-05-12T22:04:28.808Z,32
2023-05-12T22:06:59.849Z,32
2023-05-12T22:09:33.188Z,36
2023-05-12T22:12:03.361Z,36
2023-05-12T22:14:40.494Z,36
2023-05-12T22:17:10.671Z,32
2023-05-12T22:19:39.928Z,32
2023-05-12T22:22:10.526Z,33
2023-05-12T22:24:40.344Z,33
2023-05-12T22:27:10.745Z,32
2023-05-12T22:29:45.612Z,32
2023-05-12T22:32:16.089Z,32
2023-05-12T22:34:46.449Z,32
2023-05-12T22:37:16.340Z,36
2023-05-12T22:39:47.379Z,33
2023-05-12T22:42:17.987Z,32
2023-05-12T22:44:47.887Z,35
2023-05-12T22:47:18.211Z,31
2023-05-12T22:49:48.902Z,28
2023-05-12T22:52:19.488Z,35
2023-05-12T22:54:49.885Z,31
2023-05-12T22:57:20.493Z,32
2023-05-12T22:59:54.890Z,29
2023-05-12T23:02:34.084Z,32
2023-05-12T23:05:05.011Z,27
2023-05-12T23:07:35.612Z,27
2023-05-12T23:10:10.147Z,32
2023-05-12T23:12:41.054Z,28
2023-05-12T23:15:11.464Z,28
2023-05-12T23:17:43.514Z,26
2023-05-12T23:20:14.032Z,24
2023-05-12T23:22:44.515Z,24
2023-05-12T23:25:15.181Z,24
2023-05-12T23:27:45.322Z,20
2023-05-12T23:30:15.862Z,24
2023-05-12T23:32:46.490Z,28
2023-05-12T23:35:16.703Z,29
2023-05-12T23:37:47.149Z,28
2023-05-12T23:40:19.467Z,20
2023-05-12T23:42:50.486Z,28
2023-05-12T23:45:21.402Z,24
2023-05-12T23:47:51.984Z,29
2023-05-12T23:50:23.030Z,28
2023-05-12T23:52:53.101Z,28
2023-05-12T23:55:23.679Z,24
2023-05-12T23:57:54.205Z,24
